sensor_id;sensor_type;location;lat;lon;timestamp;P1;durP1;ratioP1;P2;durP2;ratioP2
59569;SDS011;45393;44.646;10.900;2022-10-17T00:01:49;87.97;;;58.27;;
59569;SDS011;45393;44.646;10.900;2022-10-17T00:04:15;87.70;;;57.17;;
59569;SDS011;45393;44.646;10.900;2022-10-17T00:06:41;94.10;;;60.53;;
59569;SDS011;45393;44.646;10.900;2022-10-17T00:09:07;94.47;;;62.80;;
59569;SDS011;45393;44.646;10.900;2022-10-17T00:11:34;98.73;;;62.10;;
59569;SDS011;45393;44.646;10.900;2022-10-17T00:14:00;98.83;;;64.10;;
59569;SDS011;45393;44.646;10.900;2022-10-17T00:16:27;94.63;;;60.50;;
59569;SDS011;45393;44.646;10.900;2022-10-17T00:18:54;96.63;;;62.57;;
59569;SDS011;45393;44.646;10.900;2022-10-17T00:21:20;91.77;;;59.23;;
59569;SDS011;45393;44.646;10.900;2022-10-17T00:23:47;91.67;;;59.13;;
59569;SDS011;45393;44.646;10.900;2022-10-17T00:26:13;86.80;;;57.77;;
59569;SDS011;45393;44.646;10.900;2022-10-17T00:28:39;92.50;;;58.93;;
59569;SDS011;45393;44.646;10.900;2022-10-17T00:31:05;89.07;;;58.40;;
59569;SDS011;45393;44.646;10.900;2022-10-17T00:33:32;82.50;;;55.70;;
59569;SDS011;45393;44.646;10.900;2022-10-17T00:36:03;85.20;;;56.37;;
59569;SDS011;45393;44.646;10.900;2022-10-17T00:38:29;85.90;;;54.53;;
59569;SDS011;45393;44.646;10.900;2022-10-17T00:40:55;74.10;;;49.30;;
59569;SDS011;45393;44.646;10.900;2022-10-17T00:43:22;71.23;;;47.10;;
59569;SDS011;45393;44.646;10.900;2022-10-17T00:45:48;68.30;;;47.50;;
59569;SDS011;45393;44.646;10.900;2022-10-17T00:48:15;71.07;;;47.47;;
59569;SDS011;45393;44.646;10.900;2022-10-17T00:50:41;71.23;;;49.67;;
59569;SDS011;45393;44.646;10.900;2022-10-17T00:53:08;79.17;;;52.87;;
59569;SDS011;45393;44.646;10.900;2022-10-17T00:55:47;69.70;;;48.43;;
59569;SDS011;45393;44.646;10.900;2022-10-17T00:58:14;76.07;;;52.37;;
59569;SDS011;45393;44.646;10.900;2022-10-17T01:00:41;73.23;;;50.73;;
59569;SDS011;45393;44.646;10.900;2022-10-17T01:03:07;72.87;;;49.17;;
59569;SDS011;45393;44.646;10.900;2022-10-17T01:05:33;78.10;;;53.67;;
59569;SDS011;45393;44.646;10.900;2022-10-17T01:08:00;78.43;;;53.07;;
59569;SDS011;45393;44.646;10.900;2022-10-17T01:10:29;72.37;;;50.00;;
59569;SDS011;45393;44.646;10.900;2022-10-17T01:20:28;73.67;;;49.63;;
59569;SDS011;45393;44.646;10.900;2022-10-17T01:25:55;74.43;;;48.90;;
59569;SDS011;45393;44.646;10.900;2022-10-17T01:30:55;77.40;;;53.63;;
59569;SDS011;45393;44.646;10.900;2022-10-17T01:35:58;70.27;;;48.57;;
59569;SDS011;45393;44.646;10.900;2022-10-17T01:38:30;78.20;;;50.97;;
59569;SDS011;45393;44.646;10.900;2022-10-17T01:41:02;75.27;;;50.73;;
59569;SDS011;45393;44.646;10.900;2022-10-17T01:46:24;68.60;;;48.27;;
59569;SDS011;45393;44.646;10.900;2022-10-17T01:48:48;73.53;;;49.17;;
59569;SDS011;45393;44.646;10.900;2022-10-17T01:51:19;75.70;;;51.67;;
59569;SDS011;45393;44.646;10.900;2022-10-17T01:53:49;81.20;;;54.17;;
59569;SDS011;45393;44.646;10.900;2022-10-17T01:56:17;76.53;;;51.77;;
59569;SDS011;45393;44.646;10.900;2022-10-17T01:58:47;79.03;;;54.90;;
59569;SDS011;45393;44.646;10.900;2022-10-17T02:01:13;75.33;;;50.43;;
59569;SDS011;45393;44.646;10.900;2022-10-17T02:03:40;78.73;;;53.13;;
59569;SDS011;45393;44.646;10.900;2022-10-17T02:06:08;78.83;;;53.60;;
59569;SDS011;45393;44.646;10.900;2022-10-17T02:08:42;81.73;;;55.20;;
59569;SDS011;45393;44.646;10.900;2022-10-17T02:11:10;79.23;;;53.83;;
59569;SDS011;45393;44.646;10.900;2022-10-17T02:13:48;76.77;;;52.87;;
59569;SDS011;45393;44.646;10.900;2022-10-17T02:24:19;70.17;;;50.37;;
59569;SDS011;45393;44.646;10.900;2022-10-17T02:26:55;75.87;;;50.47;;
59569;SDS011;45393;44.646;10.900;2022-10-17T02:29:25;71.97;;;49.80;;
59569;SDS011;45393;44.646;10.900;2022-10-17T02:34:20;73.80;;;51.10;;
59569;SDS011;45393;44.646;10.900;2022-10-17T02:36:54;85.57;;;56.07;;
59569;SDS011;45393;44.646;10.900;2022-10-17T02:39:21;73.23;;;50.70;;
59569;SDS011;45393;44.646;10.900;2022-10-17T02:41:48;75.47;;;52.13;;
59569;SDS011;45393;44.646;10.900;2022-10-17T02:44:16;79.17;;;52.33;;
59569;SDS011;45393;44.646;10.900;2022-10-17T02:46:43;78.33;;;52.23;;
59569;SDS011;45393;44.646;10.900;2022-10-17T02:49:16;75.23;;;50.50;;
59569;SDS011;45393;44.646;10.900;2022-10-17T02:51:44;79.70;;;52.23;;
59569;SDS011;45393;44.646;10.900;2022-10-17T02:57:15;80.03;;;53.80;;
59569;SDS011;45393;44.646;10.900;2022-10-17T02:59:42;72.40;;;51.50;;
59569;SDS011;45393;44.646;10.900;2022-10-17T03:02:09;74.43;;;51.03;;
59569;SDS011;45393;44.646;10.900;2022-10-17T03:04:35;74.33;;;50.37;;
59569;SDS011;45393;44.646;10.900;2022-10-17T03:07:02;74.20;;;51.37;;
59569;SDS011;45393;44.646;10.900;2022-10-17T03:09:28;82.53;;;53.40;;
59569;SDS011;45393;44.646;10.900;2022-10-17T03:11:54;91.47;;;57.70;;
59569;SDS011;45393;44.646;10.900;2022-10-17T03:14:20;87.77;;;57.77;;
59569;SDS011;45393;44.646;10.900;2022-10-17T03:16:46;93.07;;;59.33;;
59569;SDS011;45393;44.646;10.900;2022-10-17T03:19:12;95.77;;;59.47;;
59569;SDS011;45393;44.646;10.900;2022-10-17T03:21:38;96.93;;;59.67;;
59569;SDS011;45393;44.646;10.900;2022-10-17T03:24:04;88.63;;;56.53;;
59569;SDS011;45393;44.646;10.900;2022-10-17T03:26:31;87.80;;;57.33;;
59569;SDS011;45393;44.646;10.900;2022-10-17T03:28:57;87.20;;;57.13;;
59569;SDS011;45393;44.646;10.900;2022-10-17T03:31:23;89.97;;;58.00;;
59569;SDS011;45393;44.646;10.900;2022-10-17T03:33:49;94.40;;;58.60;;
59569;SDS011;45393;44.646;10.900;2022-10-17T03:36:16;97.83;;;59.57;;
59569;SDS011;45393;44.646;10.900;2022-10-17T03:38:43;93.70;;;59.53;;
59569;SDS011;45393;44.646;10.900;2022-10-17T03:41:09;95.00;;;58.17;;
59569;SDS011;45393;44.646;10.900;2022-10-17T03:43:35;91.93;;;57.73;;
59569;SDS011;45393;44.646;10.900;2022-10-17T03:46:01;88.03;;;55.67;;
59569;SDS011;45393;44.646;10.900;2022-10-17T03:48:28;92.90;;;60.10;;
59569;SDS011;45393;44.646;10.900;2022-10-17T03:51:02;92.60;;;57.90;;
59569;SDS011;45393;44.646;10.900;2022-10-17T03:53:28;92.40;;;57.60;;
59569;SDS011;45393;44.646;10.900;2022-10-17T03:55:55;87.43;;;56.40;;
59569;SDS011;45393;44.646;10.900;2022-10-17T03:58:21;92.13;;;56.70;;
59569;SDS011;45393;44.646;10.900;2022-10-17T04:00:47;92.83;;;57.67;;
59569;SDS011;45393;44.646;10.900;2022-10-17T04:03:13;98.60;;;58.40;;
59569;SDS011;45393;44.646;10.900;2022-10-17T04:05:39;89.90;;;56.17;;
59569;SDS011;45393;44.646;10.900;2022-10-17T04:08:05;89.63;;;56.87;;
59569;SDS011;45393;44.646;10.900;2022-10-17T04:10:32;82.33;;;54.47;;
59569;SDS011;45393;44.646;10.900;2022-10-17T04:12:58;86.97;;;55.03;;
59569;SDS011;45393;44.646;10.900;2022-10-17T04:15:24;84.23;;;54.87;;
59569;SDS011;45393;44.646;10.900;2022-10-17T04:17:50;95.90;;;60.60;;
59569;SDS011;45393;44.646;10.900;2022-10-17T04:20:16;92.47;;;57.33;;
59569;SDS011;45393;44.646;10.900;2022-10-17T04:22:42;80.87;;;52.73;;
59569;SDS011;45393;44.646;10.900;2022-10-17T04:25:08;95.10;;;58.50;;
59569;SDS011;45393;44.646;10.900;2022-10-17T04:27:34;89.73;;;55.43;;
59569;SDS011;45393;44.646;10.900;2022-10-17T04:30:00;95.47;;;59.17;;
59569;SDS011;45393;44.646;10.900;2022-10-17T04:32:26;93.03;;;57.90;;
59569;SDS011;45393;44.646;10.900;2022-10-17T04:34:52;90.67;;;56.73;;
59569;SDS011;45393;44.646;10.900;2022-10-17T04:37:18;99.67;;;58.27;;
59569;SDS011;45393;44.646;10.900;2022-10-17T04:39:44;94.60;;;59.40;;
59569;SDS011;45393;44.646;10.900;2022-10-17T04:42:10;98.90;;;60.17;;
59569;SDS011;45393;44.646;10.900;2022-10-17T04:44:37;95.60;;;59.70;;
59569;SDS011;45393;44.646;10.900;2022-10-17T04:47:03;104.13;;;61.60;;
59569;SDS011;45393;44.646;10.900;2022-10-17T04:49:29;96.53;;;58.83;;
59569;SDS011;45393;44.646;10.900;2022-10-17T04:51:55;99.50;;;59.40;;
59569;SDS011;45393;44.646;10.900;2022-10-17T04:54:21;97.87;;;59.37;;
59569;SDS011;45393;44.646;10.900;2022-10-17T04:56:47;98.37;;;58.27;;
59569;SDS011;45393;44.646;10.900;2022-10-17T04:59:13;97.03;;;57.33;;
59569;SDS011;45393;44.646;10.900;2022-10-17T05:01:40;87.87;;;54.17;;
59569;SDS011;45393;44.646;10.900;2022-10-17T05:04:06;98.83;;;57.13;;
59569;SDS011;45393;44.646;10.900;2022-10-17T05:06:32;88.10;;;53.67;;
59569;SDS011;45393;44.646;10.900;2022-10-17T05:08:58;87.57;;;54.63;;
59569;SDS011;45393;44.646;10.900;2022-10-17T05:11:26;77.30;;;50.83;;
59569;SDS011;45393;44.646;10.900;2022-10-17T05:13:53;84.97;;;51.07;;
59569;SDS011;45393;44.646;10.900;2022-10-17T05:16:20;79.70;;;50.30;;
59569;SDS011;45393;44.646;10.900;2022-10-17T05:18:47;86.40;;;51.37;;
59569;SDS011;45393;44.646;10.900;2022-10-17T05:21:14;82.97;;;51.23;;
59569;SDS011;45393;44.646;10.900;2022-10-17T05:23:40;74.23;;;47.47;;
59569;SDS011;45393;44.646;10.900;2022-10-17T05:26:06;91.20;;;52.80;;
59569;SDS011;45393;44.646;10.900;2022-10-17T05:28:33;80.67;;;47.73;;
59569;SDS011;45393;44.646;10.900;2022-10-17T05:31:03;87.17;;;52.80;;
59569;SDS011;45393;44.646;10.900;2022-10-17T05:33:29;76.87;;;49.57;;
59569;SDS011;45393;44.646;10.900;2022-10-17T05:35:55;76.60;;;50.37;;
59569;SDS011;45393;44.646;10.900;2022-10-17T05:38:21;83.70;;;50.10;;
59569;SDS011;45393;44.646;10.900;2022-10-17T05:40:47;81.20;;;50.27;;
59569;SDS011;45393;44.646;10.900;2022-10-17T05:43:13;93.00;;;53.90;;
59569;SDS011;45393;44.646;10.900;2022-10-17T05:45:39;90.77;;;54.07;;
59569;SDS011;45393;44.646;10.900;2022-10-17T05:48:06;92.63;;;55.63;;
59569;SDS011;45393;44.646;10.900;2022-10-17T05:50:33;84.80;;;54.53;;
59569;SDS011;45393;44.646;10.900;2022-10-17T05:52:59;90.73;;;56.23;;
59569;SDS011;45393;44.646;10.900;2022-10-17T05:55:25;90.47;;;55.53;;
59569;SDS011;45393;44.646;10.900;2022-10-17T05:57:51;92.50;;;55.77;;
59569;SDS011;45393;44.646;10.900;2022-10-17T06:00:18;96.20;;;57.10;;
59569;SDS011;45393;44.646;10.900;2022-10-17T06:02:44;103.57;;;59.03;;
59569;SDS011;45393;44.646;10.900;2022-10-17T06:05:11;98.43;;;59.10;;
59569;SDS011;45393;44.646;10.900;2022-10-17T06:07:37;102.10;;;58.10;;
59569;SDS011;45393;44.646;10.900;2022-10-17T06:10:03;83.40;;;53.83;;
59569;SDS011;45393;44.646;10.900;2022-10-17T06:12:30;91.87;;;55.30;;
59569;SDS011;45393;44.646;10.900;2022-10-17T06:14:56;84.80;;;52.87;;
59569;SDS011;45393;44.646;10.900;2022-10-17T06:17:22;89.23;;;55.00;;
59569;SDS011;45393;44.646;10.900;2022-10-17T06:19:49;82.77;;;53.43;;
59569;SDS011;45393;44.646;10.900;2022-10-17T06:22:15;82.33;;;52.73;;
59569;SDS011;45393;44.646;10.900;2022-10-17T06:24:41;86.00;;;53.93;;
59569;SDS011;45393;44.646;10.900;2022-10-17T06:27:07;91.27;;;55.93;;
59569;SDS011;45393;44.646;10.900;2022-10-17T06:29:33;85.90;;;53.83;;
59569;SDS011;45393;44.646;10.900;2022-10-17T06:31:59;83.50;;;53.83;;
59569;SDS011;45393;44.646;10.900;2022-10-17T06:34:25;87.27;;;55.27;;
59569;SDS011;45393;44.646;10.900;2022-10-17T06:36:52;77.43;;;50.90;;
59569;SDS011;45393;44.646;10.900;2022-10-17T06:39:18;78.17;;;49.87;;
59569;SDS011;45393;44.646;10.900;2022-10-17T06:41:44;70.60;;;47.57;;
59569;SDS011;45393;44.646;10.900;2022-10-17T06:44:10;71.73;;;48.10;;
59569;SDS011;45393;44.646;10.900;2022-10-17T06:46:37;73.10;;;48.97;;
59569;SDS011;45393;44.646;10.900;2022-10-17T06:49:03;70.63;;;47.10;;
59569;SDS011;45393;44.646;10.900;2022-10-17T06:51:36;69.87;;;47.80;;
59569;SDS011;45393;44.646;10.900;2022-10-17T06:54:02;62.33;;;45.33;;
59569;SDS011;45393;44.646;10.900;2022-10-17T06:56:28;65.27;;;46.70;;
59569;SDS011;45393;44.646;10.900;2022-10-17T06:58:54;63.87;;;47.13;;
59569;SDS011;45393;44.646;10.900;2022-10-17T07:01:21;69.30;;;50.07;;
59569;SDS011;45393;44.646;10.900;2022-10-17T07:03:47;77.47;;;52.97;;
59569;SDS011;45393;44.646;10.900;2022-10-17T07:06:14;71.87;;;53.20;;
59569;SDS011;45393;44.646;10.900;2022-10-17T07:08:43;64.70;;;46.87;;
59569;SDS011;45393;44.646;10.900;2022-10-17T07:11:17;63.60;;;45.90;;
59569;SDS011;45393;44.646;10.900;2022-10-17T07:13:43;63.03;;;47.60;;
59569;SDS011;45393;44.646;10.900;2022-10-17T07:16:10;65.23;;;47.67;;
59569;SDS011;45393;44.646;10.900;2022-10-17T07:18:36;67.77;;;49.33;;
59569;SDS011;45393;44.646;10.900;2022-10-17T07:21:03;68.33;;;48.77;;
59569;SDS011;45393;44.646;10.900;2022-10-17T07:23:29;66.23;;;47.90;;
59569;SDS011;45393;44.646;10.900;2022-10-17T07:25:59;69.30;;;50.10;;
59569;SDS011;45393;44.646;10.900;2022-10-17T07:28:26;63.50;;;46.40;;
59569;SDS011;45393;44.646;10.900;2022-10-17T07:30:53;68.80;;;47.77;;
59569;SDS011;45393;44.646;10.900;2022-10-17T07:33:19;62.80;;;46.47;;
59569;SDS011;45393;44.646;10.900;2022-10-17T07:35:45;65.60;;;48.00;;
59569;SDS011;45393;44.646;10.900;2022-10-17T07:38:11;66.03;;;46.30;;
59569;SDS011;45393;44.646;10.900;2022-10-17T07:40:37;61.77;;;46.33;;
59569;SDS011;45393;44.646;10.900;2022-10-17T07:43:03;70.60;;;49.73;;
59569;SDS011;45393;44.646;10.900;2022-10-17T07:45:29;69.67;;;49.33;;
59569;SDS011;45393;44.646;10.900;2022-10-17T07:47:56;75.50;;;51.63;;
59569;SDS011;45393;44.646;10.900;2022-10-17T07:50:22;75.53;;;52.33;;
59569;SDS011;45393;44.646;10.900;2022-10-17T07:52:48;75.40;;;52.90;;
59569;SDS011;45393;44.646;10.900;2022-10-17T07:55:15;69.80;;;49.20;;
59569;SDS011;45393;44.646;10.900;2022-10-17T07:57:41;72.73;;;50.27;;
59569;SDS011;45393;44.646;10.900;2022-10-17T08:00:07;74.17;;;50.00;;
59569;SDS011;45393;44.646;10.900;2022-10-17T08:02:33;67.57;;;48.97;;
59569;SDS011;45393;44.646;10.900;2022-10-17T08:04:59;71.40;;;49.80;;
59569;SDS011;45393;44.646;10.900;2022-10-17T08:07:25;78.73;;;49.07;;
59569;SDS011;45393;44.646;10.900;2022-10-17T08:09:51;60.13;;;42.63;;
59569;SDS011;45393;44.646;10.900;2022-10-17T08:12:17;65.80;;;45.87;;
59569;SDS011;45393;44.646;10.900;2022-10-17T08:14:43;68.30;;;47.90;;
59569;SDS011;45393;44.646;10.900;2022-10-17T08:17:09;62.80;;;46.27;;
59569;SDS011;45393;44.646;10.900;2022-10-17T08:19:39;60.77;;;43.70;;
59569;SDS011;45393;44.646;10.900;2022-10-17T08:22:05;55.13;;;41.07;;
59569;SDS011;45393;44.646;10.900;2022-10-17T08:24:31;57.40;;;41.87;;
59569;SDS011;45393;44.646;10.900;2022-10-17T08:26:57;59.17;;;42.03;;
59569;SDS011;45393;44.646;10.900;2022-10-17T08:29:24;57.10;;;43.17;;
59569;SDS011;45393;44.646;10.900;2022-10-17T08:31:50;57.70;;;41.83;;
59569;SDS011;45393;44.646;10.900;2022-10-17T08:34:17;57.63;;;41.63;;
59569;SDS011;45393;44.646;10.900;2022-10-17T08:36:43;56.90;;;40.50;;
59569;SDS011;45393;44.646;10.900;2022-10-17T08:39:09;52.17;;;37.63;;
59569;SDS011;45393;44.646;10.900;2022-10-17T08:41:54;50.63;;;37.77;;
59569;SDS011;45393;44.646;10.900;2022-10-17T08:47:04;48.63;;;36.97;;
59569;SDS011;45393;44.646;10.900;2022-10-17T08:52:09;47.23;;;36.97;;
59569;SDS011;45393;44.646;10.900;2022-10-17T08:54:42;54.23;;;40.73;;
59569;SDS011;45393;44.646;10.900;2022-10-17T08:57:13;54.03;;;39.33;;
59569;SDS011;45393;44.646;10.900;2022-10-17T08:59:40;51.20;;;37.70;;
59569;SDS011;45393;44.646;10.900;2022-10-17T09:04:57;49.93;;;39.23;;
59569;SDS011;45393;44.646;10.900;2022-10-17T09:07:24;53.90;;;40.00;;
59569;SDS011;45393;44.646;10.900;2022-10-17T09:17:44;53.33;;;37.30;;
59569;SDS011;45393;44.646;10.900;2022-10-17T09:22:48;51.03;;;38.27;;
59569;SDS011;45393;44.646;10.900;2022-10-17T09:25:16;55.00;;;38.87;;
59569;SDS011;45393;44.646;10.900;2022-10-17T09:27:45;53.50;;;38.27;;
59569;SDS011;45393;44.646;10.900;2022-10-17T09:32:57;56.90;;;39.00;;
59569;SDS011;45393;44.646;10.900;2022-10-17T09:35:23;52.83;;;36.57;;
59569;SDS011;45393;44.646;10.900;2022-10-17T09:37:50;51.43;;;37.30;;
59569;SDS011;45393;44.646;10.900;2022-10-17T09:40:20;44.90;;;33.77;;
59569;SDS011;45393;44.646;10.900;2022-10-17T09:42:48;49.17;;;34.87;;
59569;SDS011;45393;44.646;10.900;2022-10-17T09:47:46;49.10;;;35.37;;
59569;SDS011;45393;44.646;10.900;2022-10-17T09:52:44;49.70;;;34.57;;
59569;SDS011;45393;44.646;10.900;2022-10-17T09:57:58;53.73;;;35.60;;
59569;SDS011;45393;44.646;10.900;2022-10-17T10:00:28;50.27;;;35.90;;
59569;SDS011;45393;44.646;10.900;2022-10-17T10:05:33;43.10;;;32.90;;
59569;SDS011;45393;44.646;10.900;2022-10-17T10:08:01;45.17;;;32.73;;
59569;SDS011;45393;44.646;10.900;2022-10-17T10:10:28;51.10;;;34.00;;
59569;SDS011;45393;44.646;10.900;2022-10-17T10:13:06;45.10;;;33.33;;
59569;SDS011;45393;44.646;10.900;2022-10-17T10:15:42;51.40;;;33.57;;
59569;SDS011;45393;44.646;10.900;2022-10-17T10:23:31;45.37;;;32.33;;
59569;SDS011;45393;44.646;10.900;2022-10-17T10:25:58;44.10;;;31.20;;
59569;SDS011;45393;44.646;10.900;2022-10-17T10:28:27;47.37;;;33.80;;
59569;SDS011;45393;44.646;10.900;2022-10-17T10:30:54;47.80;;;33.23;;
59569;SDS011;45393;44.646;10.900;2022-10-17T10:33:21;44.30;;;32.67;;
59569;SDS011;45393;44.646;10.900;2022-10-17T10:35:53;45.33;;;32.27;;
59569;SDS011;45393;44.646;10.900;2022-10-17T10:38:20;49.00;;;34.67;;
59569;SDS011;45393;44.646;10.900;2022-10-17T10:40:50;45.30;;;33.20;;
59569;SDS011;45393;44.646;10.900;2022-10-17T10:43:22;49.63;;;33.90;;
59569;SDS011;45393;44.646;10.900;2022-10-17T10:45:48;47.73;;;33.70;;
59569;SDS011;45393;44.646;10.900;2022-10-17T10:50:46;52.77;;;33.70;;
59569;SDS011;45393;44.646;10.900;2022-10-17T10:58:47;48.87;;;35.70;;
59569;SDS011;45393;44.646;10.900;2022-10-17T11:02:01;50.60;;;34.87;;
59569;SDS011;45393;44.646;10.900;2022-10-17T11:06:36;54.47;;;36.43;;
59569;SDS011;45393;44.646;10.900;2022-10-17T11:11:31;51.13;;;36.03;;
59569;SDS011;45393;44.646;10.900;2022-10-17T11:14:05;43.33;;;31.50;;
59569;SDS011;45393;44.646;10.900;2022-10-17T11:16:34;52.57;;;36.13;;
59569;SDS011;45393;44.646;10.900;2022-10-17T11:26:40;52.27;;;35.53;;
59569;SDS011;45393;44.646;10.900;2022-10-17T11:29:08;49.00;;;35.90;;
59569;SDS011;45393;44.646;10.900;2022-10-17T11:31:42;51.20;;;36.03;;
59569;SDS011;45393;44.646;10.900;2022-10-17T11:34:11;48.37;;;34.23;;
59569;SDS011;45393;44.646;10.900;2022-10-17T11:36:43;50.37;;;34.67;;
59569;SDS011;45393;44.646;10.900;2022-10-17T11:39:12;50.40;;;34.33;;
59569;SDS011;45393;44.646;10.900;2022-10-17T11:44:25;43.60;;;31.87;;
59569;SDS011;45393;44.646;10.900;2022-10-17T11:46:56;47.90;;;33.53;;
59569;SDS011;45393;44.646;10.900;2022-10-17T11:49:28;47.50;;;32.80;;
59569;SDS011;45393;44.646;10.900;2022-10-17T11:54:41;49.13;;;34.00;;
59569;SDS011;45393;44.646;10.900;2022-10-17T11:59:56;45.23;;;31.80;;
59569;SDS011;45393;44.646;10.900;2022-10-17T12:02:30;48.50;;;34.10;;
59569;SDS011;45393;44.646;10.900;2022-10-17T12:05:00;53.00;;;34.40;;
59569;SDS011;45393;44.646;10.900;2022-10-17T12:16:35;41.50;;;29.87;;
59569;SDS011;45393;44.646;10.900;2022-10-17T12:21:26;43.50;;;31.30;;
59569;SDS011;45393;44.646;10.900;2022-10-17T12:23:52;41.90;;;30.20;;
59569;SDS011;45393;44.646;10.900;2022-10-17T12:26:25;38.07;;;27.43;;
59569;SDS011;45393;44.646;10.900;2022-10-17T12:28:52;41.20;;;29.27;;
59569;SDS011;45393;44.646;10.900;2022-10-17T12:33:55;37.60;;;27.87;;
59569;SDS011;45393;44.646;10.900;2022-10-17T12:39:39;35.33;;;24.83;;
59569;SDS011;45393;44.646;10.900;2022-10-17T12:49:24;35.17;;;25.20;;
59569;SDS011;45393;44.646;10.900;2022-10-17T12:54:30;34.17;;;24.67;;
59569;SDS011;45393;44.646;10.900;2022-10-17T12:56:56;36.00;;;25.73;;
59569;SDS011;45393;44.646;10.900;2022-10-17T12:59:24;34.17;;;24.03;;
59569;SDS011;45393;44.646;10.900;2022-10-17T13:01:55;32.30;;;22.50;;
59569;SDS011;45393;44.646;10.900;2022-10-17T13:04:22;34.97;;;22.00;;
59569;SDS011;45393;44.646;10.900;2022-10-17T13:06:50;31.23;;;20.90;;
59569;SDS011;45393;44.646;10.900;2022-10-17T13:11:53;34.63;;;22.60;;
59569;SDS011;45393;44.646;10.900;2022-10-17T13:14:21;33.47;;;21.70;;
59569;SDS011;45393;44.646;10.900;2022-10-17T13:19:24;28.93;;;20.83;;
59569;SDS011;45393;44.646;10.900;2022-10-17T13:26:48;25.60;;;18.90;;
59569;SDS011;45393;44.646;10.900;2022-10-17T13:29:14;35.17;;;25.87;;
59569;SDS011;45393;44.646;10.900;2022-10-17T13:31:42;33.47;;;21.70;;
59569;SDS011;45393;44.646;10.900;2022-10-17T13:34:24;32.33;;;24.57;;
59569;SDS011;45393;44.646;10.900;2022-10-17T13:36:51;33.20;;;23.70;;
59569;SDS011;45393;44.646;10.900;2022-10-17T13:39:19;35.20;;;23.90;;
59569;SDS011;45393;44.646;10.900;2022-10-17T13:41:46;39.13;;;26.37;;
59569;SDS011;45393;44.646;10.900;2022-10-17T13:44:14;34.87;;;24.37;;
59569;SDS011;45393;44.646;10.900;2022-10-17T13:46:41;31.93;;;22.70;;
59569;SDS011;45393;44.646;10.900;2022-10-17T13:49:09;28.90;;;21.80;;
59569;SDS011;45393;44.646;10.900;2022-10-17T13:51:36;32.67;;;23.47;;
59569;SDS011;45393;44.646;10.900;2022-10-17T13:54:07;30.83;;;22.43;;
59569;SDS011;45393;44.646;10.900;2022-10-17T13:56:42;38.80;;;24.57;;
59569;SDS011;45393;44.646;10.900;2022-10-17T13:59:17;32.87;;;23.10;;
59569;SDS011;45393;44.646;10.900;2022-10-17T14:01:44;36.23;;;22.87;;
59569;SDS011;45393;44.646;10.900;2022-10-17T14:04:13;28.33;;;21.20;;
59569;SDS011;45393;44.646;10.900;2022-10-17T14:06:43;32.10;;;21.40;;
59569;SDS011;45393;44.646;10.900;2022-10-17T14:09:29;30.17;;;22.33;;
59569;SDS011;45393;44.646;10.900;2022-10-17T14:11:57;29.40;;;19.97;;
59569;SDS011;45393;44.646;10.900;2022-10-17T14:14:24;27.93;;;21.20;;
59569;SDS011;45393;44.646;10.900;2022-10-17T14:16:51;22.67;;;18.10;;
59569;SDS011;45393;44.646;10.900;2022-10-17T14:21:47;26.93;;;18.83;;
59569;SDS011;45393;44.646;10.900;2022-10-17T14:24:34;28.53;;;19.47;;
59569;SDS011;45393;44.646;10.900;2022-10-17T14:26:59;28.77;;;20.13;;
59569;SDS011;45393;44.646;10.900;2022-10-17T14:29:29;21.27;;;17.03;;
59569;SDS011;45393;44.646;10.900;2022-10-17T14:32:14;28.03;;;20.00;;
59569;SDS011;45393;44.646;10.900;2022-10-17T14:34:40;24.30;;;17.97;;
59569;SDS011;45393;44.646;10.900;2022-10-17T14:37:07;25.90;;;17.57;;
59569;SDS011;45393;44.646;10.900;2022-10-17T14:39:34;26.07;;;18.37;;
59569;SDS011;45393;44.646;10.900;2022-10-17T14:42:00;27.93;;;19.87;;
59569;SDS011;45393;44.646;10.900;2022-10-17T14:44:30;26.87;;;19.00;;
59569;SDS011;45393;44.646;10.900;2022-10-17T14:46:58;22.97;;;17.17;;
59569;SDS011;45393;44.646;10.900;2022-10-17T14:49:27;24.83;;;17.13;;
59569;SDS011;45393;44.646;10.900;2022-10-17T14:52:09;28.47;;;18.97;;
59569;SDS011;45393;44.646;10.900;2022-10-17T14:54:35;22.53;;;17.97;;
59569;SDS011;45393;44.646;10.900;2022-10-17T14:57:07;25.77;;;18.63;;
59569;SDS011;45393;44.646;10.900;2022-10-17T14:59:34;23.87;;;17.77;;
59569;SDS011;45393;44.646;10.900;2022-10-17T15:02:00;26.80;;;19.33;;
59569;SDS011;45393;44.646;10.900;2022-10-17T15:04:26;23.97;;;17.63;;
59569;SDS011;45393;44.646;10.900;2022-10-17T15:06:52;21.87;;;16.73;;
59569;SDS011;45393;44.646;10.900;2022-10-17T15:09:19;26.97;;;19.80;;
59569;SDS011;45393;44.646;10.900;2022-10-17T15:11:47;26.30;;;20.00;;
59569;SDS011;45393;44.646;10.900;2022-10-17T15:14:13;25.37;;;19.60;;
59569;SDS011;45393;44.646;10.900;2022-10-17T15:16:39;27.40;;;19.13;;
59569;SDS011;45393;44.646;10.900;2022-10-17T15:19:05;27.23;;;19.13;;
59569;SDS011;45393;44.646;10.900;2022-10-17T15:21:31;26.83;;;19.60;;
59569;SDS011;45393;44.646;10.900;2022-10-17T15:23:57;27.30;;;19.43;;
59569;SDS011;45393;44.646;10.900;2022-10-17T15:26:28;23.80;;;18.53;;
59569;SDS011;45393;44.646;10.900;2022-10-17T15:28:54;28.17;;;18.80;;
59569;SDS011;45393;44.646;10.900;2022-10-17T15:31:21;24.23;;;17.97;;
59569;SDS011;45393;44.646;10.900;2022-10-17T15:33:48;23.97;;;18.33;;
59569;SDS011;45393;44.646;10.900;2022-10-17T15:36:24;24.30;;;17.73;;
59569;SDS011;45393;44.646;10.900;2022-10-17T15:38:51;22.63;;;17.17;;
59569;SDS011;45393;44.646;10.900;2022-10-17T15:41:19;28.67;;;18.67;;
59569;SDS011;45393;44.646;10.900;2022-10-17T15:43:46;24.80;;;17.23;;
59569;SDS011;45393;44.646;10.900;2022-10-17T15:46:14;25.87;;;19.47;;
59569;SDS011;45393;44.646;10.900;2022-10-17T15:48:41;26.93;;;19.30;;
59569;SDS011;45393;44.646;10.900;2022-10-17T15:51:08;29.20;;;19.60;;
59569;SDS011;45393;44.646;10.900;2022-10-17T15:53:34;27.53;;;19.93;;
59569;SDS011;45393;44.646;10.900;2022-10-17T15:56:00;29.27;;;19.63;;
59569;SDS011;45393;44.646;10.900;2022-10-17T15:58:29;32.03;;;20.73;;
59569;SDS011;45393;44.646;10.900;2022-10-17T16:00:56;31.37;;;20.80;;
59569;SDS011;45393;44.646;10.900;2022-10-17T16:03:22;29.53;;;20.87;;
59569;SDS011;45393;44.646;10.900;2022-10-17T16:05:48;30.87;;;20.20;;
59569;SDS011;45393;44.646;10.900;2022-10-17T16:08:14;29.47;;;21.40;;
59569;SDS011;45393;44.646;10.900;2022-10-17T16:10:40;25.63;;;19.97;;
59569;SDS011;45393;44.646;10.900;2022-10-17T16:13:08;30.47;;;20.90;;
59569;SDS011;45393;44.646;10.900;2022-10-17T16:15:38;29.20;;;20.60;;
59569;SDS011;45393;44.646;10.900;2022-10-17T16:18:05;30.10;;;20.30;;
59569;SDS011;45393;44.646;10.900;2022-10-17T16:20:31;34.67;;;20.63;;
59569;SDS011;45393;44.646;10.900;2022-10-17T16:22:57;34.17;;;21.00;;
59569;SDS011;45393;44.646;10.900;2022-10-17T16:25:27;31.47;;;20.57;;
59569;SDS011;45393;44.646;10.900;2022-10-17T16:27:54;33.27;;;20.57;;
59569;SDS011;45393;44.646;10.900;2022-10-17T16:30:21;33.03;;;21.67;;